TOURFACTS.DK  
Stats and Facts from Tour de France.

Tour de France 2019 starts in 348 days
  Riders   Stages   Teams   Summits   Yearly  


 
Search by year

After 2018 - Stage 14:
 15000 starters.
  5163 different riders.
  639 teams.
  2246 stages.
  456 restdays.
  441957.60 km.
  5678 abandonnees.


Top 3
GC
Christopher Froome86:20:55
Rigoberto Urán86:21:49
Romain Bardet86:23:15
Climb
Warren Barguil169 pt.
Primoz Roglic80 pt.
Thomas De Gendt64 pt.
Sprint
Michael Matthews359 pt.
André Greipel234 pt.
Edvald Boasson Hagen220 pt.
Youth
Simon Yates86:27:09
Louis Meintjes86:29:15
Emanuel Buchmann86:54:16
Facts from Tour de France 1994
  |   Stages.  |   Stage winners.  |   Days in yellow  |   Average speed.  |   Route.  |   Teams.  |   All riders.  |   Rookies.  |  

  |   Withdrawls.  |   GC.  |   Polka  |   Green  |   White  |   Summits. (In tour)  |   Miscellaneous.  |  

Stage 9 on July 11th. 1994
         Owning:    Miguel Indurain    
Pick a stage:  Pro 1 2 3 4 5 6 7 8 9 10 11 12 13 14 15 16 17 18 19 20 21
From: Périgueux    To: BergeracDist:64.00 km.

Average speed for all riders in stage:  43,961 km./hr.
    Place:Name:Team:Time:Km/h:
ESPMiguel IndurainESPBanesto01:15:58  +  00:00:00=50,548 
DENTony RomingerBELMapei-Clas01:17:58  +  00:02:00=49,252 
FRAArmand De Las CuevasFRACastorama01:20:20  +  00:04:22=47,801 
4 FRAThierry MarieFRACastorama01:20:43  +  00:04:45=47,574 
5 ENGChris BoardmanFRAGan01:21:25  +  00:05:27=47,165 
6 DENBjarne RiisITAGewiss-Ballan01:21:31  +  00:05:33=47,107 
7 FRAThomas DavyFRACastorama01:21:33  +  00:05:35=47,088 
8 ESPAbraham OlanoBELMapei-Clas01:21:43  +  00:05:45=46,992 
9 URSArturas KasputisFRAChazal-MBK-Konig01:21:59  +  00:06:01=46,839 
10 URSPiotr UgrumovITAGewiss-Ballan01:22:02  +  00:06:04=46,810 
11 ITAGianluca BortolamiBELMapei-Clas01:22:10  +  00:06:12=46,734 
12 BELNico EmondsBELMapei-Clas01:22:14  +  00:06:16=46,696 
13 USALance ArmstrongUSAMotorola01:22:21  +  00:06:23=46,630 
14 FRAJean-François BernardESPBanesto01:22:42  +  00:06:44=46,433 
15 ENGSean YatesUSAMotorola01:22:48  +  00:06:50=46,377 
16 URSDjamolidine AbduzhaparovITAPolti-Vaporetto01:22:50  +  00:06:52=46,358 
17 ITAFlavio VanzellaITAGB-MG Maglificio01:23:13  +  00:07:15=46,145 
18 BELJohan MuseeuwITAGB-MG Maglificio01:23:14  +  00:07:16=46,135 
19 URSVladimir PoulnikovITACarrera Jeans-Tassoni01:23:18  +  00:07:20=46,098 
20 URSViatcheslav EkimovBELWordperfect01:23:20  +  00:07:22=46,080 
21 FRAFrancis MoreauFRAGan01:23:39  +  00:07:41=45,906 
22 ITAAndrea PeronITAPolti-Vaporetto01:23:44  +  00:07:46=45,860 
23 NEDErik BreukinkESPO.N.C.E.01:23:47  +  00:07:49=45,833 
24 ITAAlberto ElliITAGB-MG Maglificio01:23:50  +  00:07:52=45,805 
25 ITAClaudio ChiappucciITACarrera Jeans-Tassoni01:24:02  +  00:08:04=45,696 
26 FRALuc LeblancESPFestina-Andorra01:24:02  +  00:08:04=45,696 
27 FRAPhilippe LouviotFRANovemail-Histor-Laser Computer01:24:09  +  00:08:11=45,633 
28 URSDimitri ZhdanovITAPolti-Vaporetto01:24:17  +  00:08:19=45,561 
29 ITAGianni FaresinITALampre-Panaria01:24:27  +  00:08:29=45,471 
30 BELHerman FrisonBELLotto-Veta-Caloi01:24:28  +  00:08:30=45,462 
31 ITARoberto ContiITALampre-Panaria01:24:29  +  00:08:31=45,453 
32 ITAEnrico ZainaITAGewiss-Ballan01:24:33  +  00:08:35=45,417 
33 ITAGiorgio FurlanITAGewiss-Ballan01:24:36  +  00:08:38=45,390 
34 NEDJean-Paul van PoppelESPFestina-Andorra01:24:45  +  00:08:47=45,310 
35 ITAFranco ChioccioliITAMercatone Uno-Medeghini01:24:59  +  00:09:01=45,185 
36 DENRolf SřrensenITAGB-MG Maglificio01:25:00  +  00:09:02=45,176 
37 SUIAlex ZülleESPO.N.C.E.01:25:01  +  00:09:03=45,168 
38 RUSPavel TonkovITALampre-Panaria01:25:08  +  00:09:10=45,106 
39 FRACharly MottetFRANovemail-Histor-Laser Computer01:25:08  +  00:09:10=45,106 
40 FRALaurent DesbiensFRACastorama01:25:24  +  00:09:26=44,965 
41 URSSerguei OutschakovITAPolti-Vaporetto01:25:29  +  00:09:31=44,921 
42 NEDErwin NijboerESPBanesto01:25:29  +  00:09:31=44,921 
43 FRAEddy SeigneurFRAGan01:25:31  +  00:09:33=44,904 
44 FRAPascal LinoESPFestina-Andorra01:25:32  +  00:09:34=44,895 
45 GERRolf AldagDEUTelecom01:25:32  +  00:09:34=44,895 
46 ESPMelchor MauriESPBanesto01:25:35  +  00:09:37=44,869 
47 NEDGerrit De VriesFRANovemail-Histor-Laser Computer01:25:35  +  00:09:37=44,869 
48 FRAJean-Claude ColottiFRAGan01:25:36  +  00:09:38=44,860 
49 DENBo HamburgerNLDTVM-Bison01:25:50  +  00:09:52=44,738 
50 URSAndrei TchmilBELLotto-Veta-Caloi01:25:51  +  00:09:53=44,729 
51 ESPFederico EchaveBELMapei-Clas01:25:54  +  00:09:56=44,703 
52 COLAlvaro MejiaUSAMotorola01:25:54  +  00:09:56=44,703 
53 ENGPhil AndersonUSAMotorola01:26:03  +  00:10:05=44,625 
54 ESPIgnacio GarciaESPKelme-Avianca01:26:09  +  00:10:11=44,573 
55 ESPAlberto LeanizbarrutiaESPO.N.C.E.01:26:16  +  00:10:18=44,513 
56 NEDPatrick JonkerFRANovemail-Histor-Laser Computer01:26:18  +  00:10:20=44,496 
57 NZLStephen SwartUSAMotorola01:26:19  +  00:10:21=44,487 
58 NEDRob HarmelingNLDTVM-Bison01:26:20  +  00:10:22=44,479 
59 SUIBeat ZbergITACarrera Jeans-Tassoni01:26:20  +  00:10:22=44,479 
60 ESPFernando EscartinBELMapei-Clas01:26:25  +  00:10:27=44,436 
61 ITAAlessio GallettiITALampre-Panaria01:26:28  +  00:10:30=44,410 
62 NEDMarco VermeyFRAChazal-MBK-Konig01:26:30  +  00:10:32=44,393 
63 DDRJens HeppnerDEUTelecom01:26:35  +  00:10:37=44,350 
64 SUIGianni BugnoITAPolti-Vaporetto01:26:35  +  00:10:37=44,350 
65 MARRichard VirenqueESPFestina-Andorra01:26:35  +  00:10:37=44,350 
66 NEDBart VoskampNLDTVM-Bison01:26:39  +  00:10:41=44,316 
67 ITABruno CenghialtaITAGewiss-Ballan01:26:42  +  00:10:44=44,291 
68 BELMarc WautersBELWordperfect01:26:53  +  00:10:55=44,197 
69 ITAGuido BontempiITAGewiss-Ballan01:26:54  +  00:10:56=44,189 
70 ITAMarco PantaniITACarrera Jeans-Tassoni01:26:57  +  00:10:59=44,163 
71 BELHendrik RedantITAZG Mobili-Selle Italia01:27:01  +  00:11:03=44,129 
72 ITASilvio MartinelloITAMercatone Uno-Medeghini01:27:03  +  00:11:05=44,113 
73 DDROlaf LudwigDEUTelecom01:27:04  +  00:11:06=44,104 
74 DDRGerd AudehmDEUTelecom01:27:09  +  00:11:11=44,062 
75 ITAMarco SerpelliniITALampre-Panaria01:27:16  +  00:11:18=44,003 
76 FRAJacky DurandFRACastorama01:27:16  +  00:11:18=44,003 
77 USAFrankie AndreuUSAMotorola01:27:17  +  00:11:19=43,995 
78 COLNelson RodriguezITAZG Mobili-Selle Italia01:27:20  +  00:11:22=43,969 
79 ITAGiovanni FidanzaITAPolti-Vaporetto01:27:21  +  00:11:23=43,961 
80 FRABruno ThiboutFRACastorama01:27:23  +  00:11:25=43,944 
81 ESPArsenio GonzálezBELMapei-Clas01:27:25  +  00:11:27=43,928 
82 FRAPascal HerveESPFestina-Andorra01:27:25  +  00:11:27=43,928 
83 NORDag Otto LauritzenNLDTVM-Bison01:27:29  +  00:11:31=43,894 
84 BELCarlo BomansITAGB-MG Maglificio01:27:31  +  00:11:33=43,877 
85 ITAMarco LiettiITALampre-Panaria01:27:31  +  00:11:33=43,877 
86 FRAGérard RuéESPBanesto01:27:35  +  00:11:37=43,844 
87 ESPMarino MonjeESPBanesto01:27:36  +  00:11:38=43,836 
88 ITAMarco ArtunghiITACarrera Jeans-Tassoni01:27:39  +  00:11:41=43,811 
89 FRAÉric CaritouxFRAChazal-MBK-Konig01:27:45  +  00:11:47=43,761 
90 BELMichel VermoteESPFestina-Andorra01:27:51  +  00:11:53=43,711 
91 DENPeter Meinert NielsenNLDTVM-Bison01:27:53  +  00:11:55=43,694 
92 ITAEros PoliITAMercatone Uno-Medeghini01:27:58  +  00:12:00=43,653 
93 ITAGiancarlo PeriniITAZG Mobili-Selle Italia01:28:00  +  00:12:02=43,636 
94 BELMarc SergeantFRANovemail-Histor-Laser Computer01:28:00  +  00:12:02=43,636 
95 FRAThierry GouvenouFRAGan01:28:06  +  00:12:08=43,587 
96 ESPJose-Roberto AguerroESPO.N.C.E.01:28:16  +  00:12:18=43,505 
97 NEDRob MuldersBELWordperfect01:28:18  +  00:12:20=43,488 
98 ESPLaudelino CubinoESPKelme-Avianca01:28:18  +  00:12:20=43,488 
99 URSVladislav BobrikITAGewiss-Ballan01:28:22  +  00:12:24=43,455 
100 BELGuy NulensFRANovemail-Histor-Laser Computer01:28:24  +  00:12:26=43,439 
101 FRAJean-Philippe DojwaFRAGan01:28:24  +  00:12:26=43,439 
102 NEDLeon van BonBELWordperfect01:28:25  +  00:12:27=43,431 
103 ITAPaolo LanfranchiITAMercatone Uno-Medeghini01:28:25  +  00:12:27=43,431 
104 NEDEdwig Van HooydonckBELWordperfect01:28:33  +  00:12:35=43,365 
105 DDRUwe RaabDEUTelecom01:28:34  +  00:12:36=43,357 
106 ESPRaúl AlcaláUSAMotorola01:28:34  +  00:12:36=43,357 
107 ESPJosé UriarteESPBanesto01:28:37  +  00:12:39=43,333 
108 GERUdo BöltsDEUTelecom01:28:37  +  00:12:39=43,333 
109 ITARemo RossiITACarrera Jeans-Tassoni01:28:37  +  00:12:39=43,333 
110 GERChristian HennDEUTelecom01:28:38  +  00:12:40=43,325 
111 FRAFrançois SimonFRACastorama01:28:38  +  00:12:40=43,325 
112 SVKJán SvoradaITALampre-Panaria01:28:41  +  00:12:43=43,300 
113 AUSStephen HodgeESPFestina-Andorra01:28:43  +  00:12:45=43,284 
114 FRAJean-Claude BagotESPFestina-Andorra01:28:44  +  00:12:46=43,276 
115 NEDGert-Jan TheunisseNLDTVM-Bison01:28:45  +  00:12:47=43,268 
116 SUIRolf JärmannITAGB-MG Maglificio01:28:46  +  00:12:48=43,259 
117 NEDErik DekkerBELWordperfect01:28:48  +  00:12:50=43,243 
118 ITARosario FinaITAMercatone Uno-Medeghini01:28:52  +  00:12:54=43,211 
119 ITAOscar PelliccioliITAPolti-Vaporetto01:28:55  +  00:12:57=43,187 
120 ESPVicente AparicioESPBanesto01:28:56  +  00:12:58=43,178 
121 ITADario BottaroITAGewiss-Ballan01:29:04  +  00:13:06=43,114 
122 ITARoberto PetitoITAMercatone Uno-Medeghini01:29:04  +  00:13:06=43,114 
123 DDRMario KummerDEUTelecom01:29:05  +  00:13:07=43,106 
124 COLFederico FernandezESPKelme-Avianca01:29:05  +  00:13:07=43,106 
125 FRALaurent MadouasFRACastorama01:29:06  +  00:13:08=43,098 
126 DENJesper SkibbyNLDTVM-Bison01:29:10  +  00:13:12=43,065 
127 ITAMario ChiesaITACarrera Jeans-Tassoni01:29:11  +  00:13:13=43,057 
128 NEDSteven RooksNLDTVM-Bison01:29:12  +  00:13:14=43,049 
129 COLHernán BuenahoraESPKelme-Avianca01:29:16  +  00:13:18=43,017 
130 ESPJon UnzagaBELMapei-Clas01:29:17  +  00:13:19=43,009 
131 FRAPascal ChanteurFRAChazal-MBK-Konig01:29:22  +  00:13:24=42,969 
132 ESPRamon GonzalezESPBanesto01:29:26  +  00:13:28=42,937 
133 ITAMario ScireaITAPolti-Vaporetto01:29:31  +  00:13:33=42,897 
134 FRARonan PensecFRANovemail-Histor-Laser Computer01:29:37  +  00:13:39=42,849 
135 FRAJean-Pierre BourgeotFRAChazal-MBK-Konig01:29:45  +  00:13:47=42,786 
136 FRARoberto TorresESPFestina-Andorra01:29:51  +  00:13:53=42,738 
137 MEXMiguel ArroyoFRAChazal-MBK-Konig01:29:54  +  00:13:56=42,714 
138 BELJim Van De LaerBELLotto-Veta-Caloi01:29:56  +  00:13:58=42,698 
139 ITAStefano ColagčITAZG Mobili-Selle Italia01:29:57  +  00:13:59=42,690 
140 FRAChristophe ManinFRAChazal-MBK-Konig01:30:01  +  00:14:03=42,659 
141 AUSNeil StephensESPO.N.C.E.01:30:03  +  00:14:05=42,643 
142 FRAEmmanuel MagnienFRACastorama01:30:04  +  00:14:06=42,635 
143 ESPFrancisco CabelloESPKelme-Avianca01:30:05  +  00:14:07=42,627 
144 BELMichel DerniesUSAMotorola01:30:05  +  00:14:07=42,627 
145 BELPeter De ClercqBELLotto-Veta-Caloi01:30:11  +  00:14:13=42,580 
146 ITAMarco ZenITALampre-Panaria01:30:14  +  00:14:16=42,556 
147 ITAMauro-Antonio SantaromitaITAZG Mobili-Selle Italia01:30:15  +  00:14:17=42,548 
148 COLOliverio RincónESPO.N.C.E.01:30:17  +  00:14:19=42,533 
149 URSJaan KirsipuuFRAChazal-MBK-Konig01:30:19  +  00:14:21=42,517 
150 BELPeter FarazijnBELLotto-Veta-Caloi01:30:21  +  00:14:23=42,501 
151 ITAFranco VonaITAGB-MG Maglificio01:30:21  +  00:14:23=42,501 
152 POLCesary ZamanaESPKelme-Avianca01:30:30  +  00:14:32=42,431 
153 COLJulio-César CadenaESPKelme-Avianca01:30:31  +  00:14:33=42,423 
154 BELRudy VerdonckBELLotto-Veta-Caloi01:30:31  +  00:14:33=42,423 
155 DDRErik ZabelDEUTelecom01:30:32  +  00:14:34=42,415 
156 BELEric Van LanckerBELWordperfect01:30:32  +  00:14:34=42,415 
157 NORAtle KvĺlsvollBELWordperfect01:30:42  +  00:14:44=42,337 
158 ITAMario MantovanITACarrera Jeans-Tassoni01:30:43  +  00:14:45=42,330 
159 ESPHerminio ZabalaESPO.N.C.E.01:30:44  +  00:14:46=42,322 
160 BELWilfried PeetersITAGB-MG Maglificio01:30:45  +  00:14:47=42,314 
161 ITADavide CassaniITAGB-MG Maglificio01:30:46  +  00:14:48=42,306 
162 SUILaurent DufauxESPO.N.C.E.01:30:50  +  00:14:52=42,275 
163 SUIJörg MüllerBELMapei-Clas01:30:59  +  00:15:01=42,206 
164 ITAGiuseppe PetitoITAMercatone Uno-Medeghini01:31:03  +  00:15:05=42,175 
165 ESPÁngel EdoESPKelme-Avianca01:31:10  +  00:15:12=42,121 
166 ITAMassimo GhirottoITAZG Mobili-Selle Italia01:31:14  +  00:15:16=42,090 
167 BELLuc RoosenBELLotto-Veta-Caloi01:31:32  +  00:15:34=41,952 
168 FRAChristophe CapelleFRAGan01:31:37  +  00:15:39=41,914 
169 BELJohan CapiotNLDTVM-Bison01:31:39  +  00:15:41=41,899 
170 NEDJohn TalenITAMercatone Uno-Medeghini01:31:57  +  00:15:59=41,762 
171 ITADavide PeronaITAZG Mobili-Selle Italia01:32:01  +  00:16:03=41,732 
172 ITAAlessandro BertoliniITACarrera Jeans-Tassoni01:32:19  +  00:16:21=41,596 
173 BELMario De ClercqBELLotto-Veta-Caloi01:33:02  +  00:17:04=41,276 
174 ITANicola MinaliITAGewiss-Ballan01:34:06  +  00:18:08=40,808 
175 COLAngel OchoaESPKelme-Avianca01:34:59  +  00:19:01=40,428 

Withdrawls: 1
 
Rider
Team
Reason
185  FRAGérard GuazziniFRAChazal-MBK-KonigExceeded time limit

Todays birthdays.

1877  Antoine Perrichon
1878  Auguste Berthault
1911  Théo Herckenrath
1924  Carlo Lafranchi
1931  Armand Di Caro
1937  Jean-Claude Lebaube
1951  Giovanni Battaglin
1961  Pascal Jules
1962  Jean-Claude Leclercq
1976  Janek Tombak
1978  Francisco Pérez
1983  Dries Devenyns




Visits: